Time;durP1;ratioP1;P1;durP2;ratioP2;P2;SDS_P1;SDS_P2;PMS_P1;PMS_P2;Temp;Humidity;BMP_temperature;BMP_pressure;BME280_temperature;BME280_humidity;BME280_pressure;Samples;Min_cycle;Max_cycle;Signal;HPM_P1;HPM_P2
2022/08/18 00:01:21;;;;;;;21.55;9.57;;;;;;;18.57;99.61;101301.63;5009036;28;20057;-41
2022/08/18 00:03:47;;;;;;;20.45;10.10;;;;;;;18.59;99.91;101296.81;5012060;28;20116;-41
2022/08/18 00:06:12;;;;;;;21.77;9.85;;;;;;;18.59;99.99;101299.53;5012614;28;20030;-41
2022/08/18 00:08:38;;;;;;;22.85;10.13;;;;;;;18.59;100.00;101290.53;5013788;28;20112;-41
2022/08/18 00:11:04;;;;;;;19.23;9.85;;;;;;;18.59;100.00;101294.09;5012810;28;20022;-41
2022/08/18 00:13:29;;;;;;;16.33;8.73;;;;;;;18.60;100.00;101293.00;5011747;28;20065;-41
2022/08/18 00:15:55;;;;;;;19.30;9.52;;;;;;;18.62;100.00;101288.19;5012206;28;20060;-41
2022/08/18 00:18:20;;;;;;;21.25;9.50;;;;;;;18.62;100.00;101293.63;5008279;28;20112;-42
2022/08/18 00:20:45;;;;;;;27.13;9.35;;;;;;;18.64;100.00;101293.38;5011674;28;20080;-42
2022/08/18 00:23:12;;;;;;;12.82;8.68;;;;;;;18.66;100.00;101299.44;5010655;28;21408;-41
2022/08/18 00:25:37;;;;;;;19.88;9.25;;;;;;;18.64;100.00;101302.41;5010113;28;20030;-41
2022/08/18 00:28:04;;;;;;;18.08;9.43;;;;;;;18.64;100.00;101296.97;5006974;28;20175;-41
2022/08/18 00:30:29;;;;;;;15.30;8.82;;;;;;;18.62;100.00;101285.44;5011465;28;20056;-41
2022/08/18 00:32:57;;;;;;;23.23;9.98;;;;;;;18.62;100.00;101281.91;5012071;28;20021;-42
2022/08/18 00:35:31;;;;;;;16.50;9.05;;;;;;;18.60;100.00;101265.75;5011542;28;20437;-41
2022/08/18 00:37:59;;;;;;;20.65;9.60;;;;;;;18.58;100.00;101258.84;5012893;28;20033;-42
2022/08/18 00:40:40;;;;;;;20.02;9.60;;;;;;;18.53;100.00;101267.69;4980027;28;20033;-42
2022/08/18 00:43:11;;;;;;;17.17;9.18;;;;;;;18.49;100.00;101271.94;4990771;28;20133;-42
2022/08/18 00:45:39;;;;;;;22.60;9.48;;;;;;;18.47;100.00;101279.50;5011534;28;20088;-41
2022/08/18 00:48:05;;;;;;;;;;;;;;;18.43;100.00;101283.72;4984543;28;20478;-42
2022/08/18 00:50:38;;;;;;;16.90;9.23;;;;;;;18.39;100.00;101282.53;4997220;28;19925;-41
2022/08/18 00:53:25;;;;;;;17.60;9.82;;;;;;;18.37;100.00;101281.91;5010981;28;20380;-41
2022/08/18 00:55:50;;;;;;;24.63;9.80;;;;;;;18.34;100.00;101285.91;5010641;28;20029;-43
2022/08/18 00:58:21;;;;;;;18.80;9.77;;;;;;;18.30;100.00;101286.56;4993722;28;20037;-40
2022/08/18 01:00:49;;;;;;;18.50;10.35;;;;;;;18.28;100.00;101286.81;5010767;28;20037;-40
2022/08/18 01:03:16;;;;;;;12.98;9.45;;;;;;;18.27;100.00;101287.84;4995082;28;20485;-42
2022/08/18 01:05:46;;;;;;;14.70;9.88;;;;;;;18.27;100.00;101292.47;4993462;28;20044;-40
2022/08/18 01:08:13;;;;;;;17.60;9.88;;;;;;;18.25;100.00;101286.44;4993661;28;20100;-41
2022/08/18 01:10:39;;;;;;;17.75;9.70;;;;;;;18.27;100.00;101276.13;4994282;28;20105;-41
2022/08/18 01:13:05;;;;;;;18.70;9.73;;;;;;;18.24;100.00;101287.47;4991658;28;22214;-41
2022/08/18 01:15:30;;;;;;;19.48;9.60;;;;;;;18.21;100.00;101292.28;5009098;28;20029;-40
2022/08/18 01:21:49;;;;;;;20.85;10.75;;;;;;;18.18;100.00;101289.19;5010857;28;20156;-41
2022/08/18 01:23:48;;;;;;;16.65;10.07;;;;;;;18.19;100.00;101275.34;5011516;28;20057;-41
2022/08/18 01:26:15;;;;;;;18.00;10.27;;;;;;;18.19;100.00;101271.78;4994301;28;20030;-41
2022/08/18 01:28:43;;;;;;;21.13;10.48;;;;;;;18.22;100.00;101271.34;4992604;28;20341;-41
2022/08/18 01:31:09;;;;;;;25.90;10.68;;;;;;;18.20;100.00;101270.72;5008976;28;20084;-41
2022/08/18 01:33:41;;;;;;;16.50;10.20;;;;;;;18.16;100.00;101270.31;5007686;28;20026;-41
2022/08/18 01:36:06;;;;;;;18.40;10.40;;;;;;;18.14;100.00;101267.00;5009586;28;20072;-41
2022/08/18 01:38:32;;;;;;;20.77;11.75;;;;;;;18.12;100.00;101266.41;4993919;28;20505;-41
2022/08/18 01:40:58;;;;;;;25.63;11.65;;;;;;;18.09;100.00;101275.00;5010370;28;20041;-40
2022/08/18 01:43:23;;;;;;;18.60;11.30;;;;;;;18.08;100.00;101277.94;5009877;28;20026;-41
2022/08/18 01:45:49;;;;;;;21.77;11.50;;;;;;;18.05;100.00;101276.50;5010592;28;20026;-41
2022/08/18 01:48:15;;;;;;;20.85;11.55;;;;;;;18.03;100.00;101273.16;5010934;28;20460;-41
2022/08/18 01:50:42;;;;;;;23.48;12.50;;;;;;;18.02;100.00;101282.38;5009191;28;20061;-41
2022/08/18 01:53:10;;;;;;;29.63;12.32;;;;;;;17.99;100.00;101277.38;5011193;28;20041;-41
2022/08/18 01:55:37;;;;;;;19.67;11.45;;;;;;;17.98;100.00;101272.97;5009913;28;20033;-40
2022/08/18 01:58:03;;;;;;;20.98;11.70;;;;;;;17.95;100.00;101295.22;5007288;28;20124;-40
2022/08/18 02:00:31;;;;;;;22.10;11.35;;;;;;;17.90;100.00;101292.31;5009963;28;20117;-40
2022/08/18 02:02:56;;;;;;;19.77;11.75;;;;;;;17.88;100.00;101303.44;5009433;28;20079;-40
2022/08/18 02:05:30;;;;;;;21.88;11.73;;;;;;;17.85;100.00;101297.56;5009654;28;20401;-41
2022/08/18 02:07:55;;;;;;;19.30;12.15;;;;;;;17.81;100.00;101302.63;4992987;28;20026;-43
2022/08/18 02:10:20;;;;;;;20.67;11.57;;;;;;;17.79;100.00;101293.84;5010749;28;20547;-41
2022/08/18 02:12:46;;;;;;;18.35;12.25;;;;;;;17.77;100.00;101299.50;5010645;28;20432;-40
2022/08/18 02:15:11;;;;;;;20.27;12.07;;;;;;;17.76;100.00;101300.53;5005805;28;20401;-41
2022/08/18 02:17:39;;;;;;;18.65;12.48;;;;;;;17.74;100.00;101294.47;5009275;28;20495;-41
2022/08/18 02:20:07;;;;;;;23.48;12.45;;;;;;;17.73;100.00;101294.69;5007780;28;20038;-41
2022/08/18 02:22:33;;;;;;;23.17;13.55;;;;;;;17.72;100.00;101299.31;4977119;28;20105;-41
2022/08/18 02:24:58;;;;;;;22.25;12.98;;;;;;;17.72;100.00;101304.75;5011079;28;20112;-40
2022/08/18 02:27:26;;;;;;;19.20;12.27;;;;;;;17.72;100.00;101299.31;5008193;28;20034;-41
2022/08/18 02:29:51;;;;;;;23.20;12.98;;;;;;;17.71;100.00;101297.63;5005369;28;20614;-41
2022/08/18 02:34:45;;;;;;;18.70;12.68;;;;;;;17.68;100.00;101295.34;5000908;23;20506;-36
2022/08/18 02:37:10;;;;;;;27.05;13.02;;;;;;;17.64;100.00;101302.28;4968350;28;20133;-37
2022/08/18 02:39:36;;;;;;;22.30;13.15;;;;;;;17.60;100.00;101295.59;4966258;28;20110;-36
2022/08/18 02:42:06;;;;;;;22.50;13.52;;;;;;;17.58;100.00;101302.31;4966362;28;20073;-36
2022/08/18 02:44:32;;;;;;;18.17;12.75;;;;;;;17.56;100.00;101297.06;4967058;28;20030;-37
2022/08/18 02:46:57;;;;;;;21.60;13.88;;;;;;;17.55;100.00;101307.13;4962369;28;20023;-36
2022/08/18 02:49:24;;;;;;;20.85;13.85;;;;;;;17.53;100.00;101305.69;4972887;28;20446;-36
2022/08/18 02:51:53;;;;;;;21.20;14.23;;;;;;;17.49;100.00;101308.00;4962126;28;20030;-36
2022/08/18 02:54:21;;;;;;;20.48;13.65;;;;;;;17.48;100.00;101313.66;4956292;28;20038;-37
2022/08/18 02:56:47;;;;;;;20.65;13.88;;;;;;;17.46;100.00;101311.16;4962592;28;20027;-36
2022/08/18 02:59:15;;;;;;;24.00;13.80;;;;;;;17.47;100.00;101309.28;4965278;28;20456;-36
2022/08/18 03:01:43;;;;;;;22.48;13.75;;;;;;;17.49;100.00;101313.44;4962732;28;20291;-36
2022/08/18 03:04:11;;;;;;;23.38;13.77;;;;;;;17.54;100.00;101318.25;4980606;28;20027;-36
2022/08/18 03:06:37;;;;;;;23.77;14.27;;;;;;;17.56;100.00;101316.13;4953157;28;20065;-36
2022/08/18 03:09:08;;;;;;;21.13;14.10;;;;;;;17.60;100.00;101322.81;4978545;28;20485;-37
2022/08/18 03:11:34;;;;;;;26.67;14.45;;;;;;;17.64;100.00;101329.50;4958315;28;20387;-38
2022/08/18 03:14:00;;;;;;;25.40;13.38;;;;;;;17.68;100.00;101328.00;4967519;28;20027;-36
2022/08/18 03:16:25;;;;;;;21.30;14.15;;;;;;;17.71;100.00;101327.56;4971057;28;20031;-35
2022/08/18 03:18:52;;;;;;;24.35;14.35;;;;;;;17.75;100.00;101330.72;4971424;28;20508;-36
2022/08/18 03:21:20;;;;;;;25.05;14.00;;;;;;;17.76;100.00;101330.47;4970203;28;20058;-36
2022/08/18 03:23:46;;;;;;;22.60;14.43;;;;;;;17.77;100.00;101334.88;4968643;28;20027;-36
2022/08/18 03:26:17;;;;;;;24.20;14.73;;;;;;;17.82;100.00;101326.06;4970742;28;20121;-36
2022/08/18 03:28:48;;;;;;;25.15;13.88;;;;;;;17.84;100.00;101328.59;4969857;28;20587;-36
2022/08/18 03:31:15;;;;;;;20.77;14.18;;;;;;;17.87;100.00;101328.16;4970711;28;20074;-36
2022/08/18 03:33:41;;;;;;;;;;;;;;;17.89;100.00;101331.50;4980076;28;20180;-36
2022/08/18 03:36:08;;;;;;;26.98;13.90;;;;;;;17.91;100.00;101332.13;4976446;28;19965;-36
2022/08/18 03:38:33;;;;;;;21.40;14.18;;;;;;;17.91;100.00;101327.50;4970741;28;20102;-36
2022/08/18 03:40:59;;;;;;;25.65;14.77;;;;;;;17.92;100.00;101317.44;4971855;28;20435;-36
2022/08/18 03:43:24;;;;;;;19.08;14.13;;;;;;;17.95;100.00;101325.16;4972009;28;20179;-36
2022/08/18 03:45:49;;;;;;;20.35;14.57;;;;;;;17.95;100.00;101327.88;4970343;28;20070;-36
2022/08/18 03:48:15;;;;;;;26.10;14.38;;;;;;;17.97;100.00;101323.06;4969732;28;20025;-36
2022/08/18 03:50:41;;;;;;;27.50;15.32;;;;;;;18.01;100.00;101327.03;4970245;28;20367;-36
2022/08/18 03:53:06;;;;;;;24.73;14.75;;;;;;;18.03;100.00;101329.53;4969630;28;20032;-36
2022/08/18 03:55:31;;;;;;;33.15;14.95;;;;;;;18.07;100.00;101328.03;4970859;28;20027;-36
2022/08/18 03:58:03;;;;;;;22.88;14.38;;;;;;;18.17;100.00;101323.78;4971328;28;20030;-36
2022/08/18 04:00:30;;;;;;;17.35;12.68;;;;;;;18.21;100.00;101314.09;4969167;28;20039;-38
2022/08/18 04:02:56;;;;;;;24.52;13.18;;;;;;;18.21;100.00;101316.81;4969846;28;20501;-36
2022/08/18 04:05:21;;;;;;;20.48;12.65;;;;;;;18.18;100.00;101324.59;4968219;28;20047;-35
2022/08/18 04:07:47;;;;;;;20.30;12.77;;;;;;;18.15;100.00;101325.88;4970736;28;20114;-35
2022/08/18 04:10:12;;;;;;;23.95;13.07;;;;;;;18.13;100.00;101327.97;4969926;28;20039;-35
2022/08/18 04:12:40;;;;;;;19.48;13.43;;;;;;;18.13;100.00;101321.69;4971299;28;20027;-35
2022/08/18 04:15:05;;;;;;;25.55;13.25;;;;;;;18.12;100.00;101331.78;4971461;28;20030;-36
2022/08/18 04:17:31;;;;;;;25.33;13.02;;;;;;;18.12;100.00;101326.31;4967053;28;20390;-35
2022/08/18 04:19:57;;;;;;;17.83;12.75;;;;;;;18.13;100.00;101327.97;4965975;28;20554;-35
2022/08/18 04:22:23;;;;;;;26.25;13.77;;;;;;;18.13;100.00;101317.09;4957296;28;20026;-35
2022/08/18 04:24:49;;;;;;;19.95;12.10;;;;;;;18.15;100.00;101320.44;4972475;28;20083;-35
2022/08/18 04:27:15;;;;;;;20.80;13.13;;;;;;;18.18;100.00;101313.72;4974350;28;20023;-36
2022/08/18 04:29:41;;;;;;;20.02;11.93;;;;;;;18.27;100.00;101316.97;4972607;28;20030;-35
2022/08/18 04:32:06;;;;;;;19.95;11.48;;;;;;;18.32;100.00;101314.44;4979899;28;20037;-35
2022/08/18 04:34:33;;;;;;;17.60;10.63;;;;;;;18.36;100.00;101307.50;4974596;28;20055;-36
2022/08/18 04:36:58;;;;;;;21.95;11.55;;;;;;;18.33;100.00;101310.66;4973971;28;20518;-36
2022/08/18 04:39:24;;;;;;;21.30;12.02;;;;;;;18.27;100.00;101309.63;4975262;28;20106;-35
2022/08/18 04:41:50;;;;;;;21.13;10.95;;;;;;;18.23;100.00;101302.97;4974111;28;20054;-36
2022/08/18 04:44:17;;;;;;;18.02;11.48;;;;;;;18.20;100.00;101303.44;4973222;28;20034;-36
2022/08/18 04:46:48;;;;;;;23.48;11.68;;;;;;;18.16;100.00;101311.19;4971147;28;20883;-36
2022/08/18 04:49:15;;;;;;;25.25;13.07;;;;;;;18.12;100.00;101320.03;4990379;28;20129;-35
2022/08/18 04:54:33;;;;;;;22.88;12.90;;;;;;;17.98;100.00;101316.56;4958170;28;20081;-36
2022/08/18 04:56:59;;;;;;;21.13;12.50;;;;;;;17.96;100.00;101310.50;4970905;28;20189;-36
2022/08/18 04:59:24;;;;;;;23.38;13.57;;;;;;;17.93;100.00;101310.94;4972885;28;20477;-36
2022/08/18 05:01:49;;;;;;;21.17;13.05;;;;;;;17.90;100.00;101305.94;4967398;28;20505;-36
2022/08/18 05:04:16;;;;;;;24.35;14.85;;;;;;;17.90;100.00;101314.09;4971494;28;20068;-35
2022/08/18 05:06:42;;;;;;;33.42;15.88;;;;;;;17.93;100.00;101319.09;4970527;28;20039;-36
2022/08/18 05:09:09;;;;;;;26.23;14.80;;;;;;;18.00;100.00;101322.63;4970353;28;20023;-36
2022/08/18 05:11:35;;;;;;;27.08;15.27;;;;;;;18.09;100.00;101318.59;4969232;28;20052;-36
2022/08/18 05:14:07;;;;;;;27.90;14.13;;;;;;;18.19;100.00;101316.22;4971870;28;20668;-38
2022/08/18 05:16:35;;;;;;;23.23;14.38;;;;;;;18.34;100.00;101312.31;4961638;28;20032;-35
2022/08/18 05:19:10;;;;;;;26.38;14.77;;;;;;;18.42;100.00;101310.16;4969226;28;20137;-36
2022/08/18 05:21:35;;;;;;;22.83;12.82;;;;;;;18.47;100.00;101311.38;4970935;28;20039;-36
2022/08/18 05:24:02;;;;;;;26.30;12.30;;;;;;;18.52;100.00;101315.09;4954979;28;20041;-37
2022/08/18 05:26:28;;;;;;;23.75;12.32;;;;;;;18.58;100.00;101303.28;4965017;28;20038;-35
2022/08/18 05:28:53;;;;;;;37.08;13.55;;;;;;;18.70;100.00;101305.31;4970305;28;20357;-35
2022/08/18 05:31:21;;;;;;;21.08;12.98;;;;;;;18.74;100.00;101311.97;4970609;28;20035;-36
2022/08/18 05:33:47;;;;;;;25.55;13.13;;;;;;;18.80;100.00;101322.00;4973121;28;20069;-36
2022/08/18 05:36:37;;;;;;;28.58;13.55;;;;;;;18.89;100.00;101315.22;4970603;28;20034;-36
2022/08/18 05:39:13;;;;;;;20.05;12.57;;;;;;;18.98;100.00;101313.84;4981208;28;20101;-35
2022/08/18 05:41:40;;;;;;;16.65;10.98;;;;;;;19.15;100.00;101319.53;4952515;28;20035;-35
2022/08/18 05:44:08;;;;;;;30.20;12.25;;;;;;;19.24;100.00;101318.16;4953131;28;20381;-36
2022/08/18 05:46:39;;;;;;;;;;;;;;;19.43;100.00;101318.16;4979971;28;20457;-36
2022/08/18 05:49:05;;;;;;;32.10;11.30;;;;;;;19.71;100.00;101321.16;4972538;28;20016;-35
2022/08/18 05:51:35;;;;;;;20.90;9.90;;;;;;;20.19;100.00;101330.34;4970260;28;20558;-37
2022/08/18 05:56:46;;;;;;;13.98;8.60;;;;;;;21.35;96.91;101327.06;4968480;28;20118;-37
2022/08/18 05:59:21;;;;;;;18.45;9.20;;;;;;;22.22;89.98;101332.38;4968773;28;20030;-37
2022/08/18 06:01:53;;;;;;;17.13;8.23;;;;;;;23.09;84.50;101330.16;4977558;28;20053;-36
2022/08/18 06:04:25;;;;;;;15.30;7.13;;;;;;;23.76;78.89;101318.91;4968923;28;20105;-37
2022/08/18 06:06:51;;;;;;;15.80;8.10;;;;;;;24.35;73.98;101320.00;4969435;28;20573;-36
2022/08/18 06:09:16;;;;;;;15.50;7.18;;;;;;;24.99;72.15;101330.97;4969623;28;20501;-37
2022/08/18 06:11:42;;;;;;;12.60;6.88;;;;;;;25.49;69.18;101325.97;4988948;28;20030;-37
2022/08/18 06:14:07;;;;;;;21.70;7.75;;;;;;;25.92;67.25;101321.16;4977316;28;20519;-37
2022/08/18 06:17:00;;;;;;;14.68;7.05;;;;;;;26.44;64.66;101320.09;4982765;28;20489;-38
2022/08/18 06:19:33;;;;;;;17.13;9.07;;;;;;;26.34;62.85;101326.44;4987523;28;20042;-38
2022/08/18 06:22:05;;;;;;;15.82;7.90;;;;;;;27.09;61.65;101323.03;4979836;28;20038;-36
2022/08/18 06:25:06;;;;;;;15.25;6.75;;;;;;;27.37;58.49;101327.09;4968702;28;20375;-36
2022/08/18 06:27:44;;;;;;;17.88;7.10;;;;;;;27.39;57.83;101326.84;4965047;28;20110;-37
2022/08/18 06:30:16;;;;;;;21.42;7.57;;;;;;;27.30;58.22;101335.69;4972205;28;20250;-39
2022/08/18 06:32:51;;;;;;;17.85;7.20;;;;;;;26.95;59.63;101335.78;4973210;28;20049;-37
2022/08/18 06:35:22;;;;;;;28.38;7.57;;;;;;;26.98;58.84;101332.47;4973614;28;20498;-37
2022/08/18 06:40:40;;;;;;;18.38;7.15;;;;;;;27.72;56.93;101334.38;4972664;28;20538;-36
2022/08/18 06:43:08;;;;;;;17.25;7.35;;;;;;;27.81;55.31;101333.84;4972998;28;20109;-36
2022/08/18 06:45:36;;;;;;;18.23;5.93;;;;;;;28.60;52.85;101335.47;4974638;28;21943;-36
2022/08/18 06:48:08;;;;;;;19.50;6.88;;;;;;;28.61;53.90;101334.31;4971454;28;20053;-36
2022/08/18 06:50:41;;;;;;;20.80;6.93;;;;;;;28.63;52.76;101343.19;4978787;28;20093;-35
2022/08/18 06:53:07;;;;;;;14.18;5.82;;;;;;;28.44;53.21;101339.50;4969813;28;20038;-35
2022/08/18 06:55:41;;;;;;;15.70;5.93;;;;;;;28.20;54.80;101337.44;4972066;28;20066;-37
2022/08/18 06:58:26;;;;;;;13.10;5.57;;;;;;;27.93;54.26;101337.88;4966891;28;20027;-36
2022/08/18 07:00:51;;;;;;;8.50;4.60;;;;;;;28.42;52.10;101338.91;4971842;28;20022;-37
2022/08/18 07:03:23;;;;;;;13.23;4.40;;;;;;;27.74;53.35;101337.69;4984434;28;20022;-36
2022/08/18 07:06:03;;;;;;;13.30;5.13;;;;;;;26.56;57.33;101348.25;4984605;28;20034;-35
2022/08/18 07:08:31;;;;;;;9.30;4.70;;;;;;;26.55;56.92;101348.56;4965782;28;20056;-35
2022/08/18 07:11:10;;;;;;;6.70;4.55;;;;;;;26.34;57.98;101354.03;4972125;28;20595;-35
2022/08/18 07:13:39;;;;;;;9.98;4.97;;;;;;;25.64;59.28;101353.59;4970680;28;20030;-34
2022/08/18 07:16:15;;;;;;;13.90;5.10;;;;;;;24.72;62.95;101353.06;4974584;28;20022;-36
2022/08/18 07:18:40;;;;;;;11.65;4.38;;;;;;;24.35;63.78;101353.03;4971967;28;20066;-35
2022/08/18 07:21:06;;;;;;;8.88;4.22;;;;;;;23.95;65.50;101354.31;4988163;28;20072;-35
2022/08/18 07:23:38;;;;;;;15.95;4.70;;;;;;;23.85;67.32;101347.59;4973355;28;20118;-35
2022/08/18 07:26:14;;;;;;;10.57;4.28;;;;;;;24.45;67.75;101358.66;4968945;28;20030;-36
2022/08/18 07:28:43;;;;;;;13.38;4.57;;;;;;;24.72;65.08;101361.34;4968287;28;20058;-35
2022/08/18 07:31:35;;;;;;;14.68;4.07;;;;;;;24.79;64.13;101359.19;4983770;28;20064;-35
2022/08/18 07:34:03;;;;;;;10.02;3.85;;;;;;;24.69;64.50;101357.19;4949806;28;20521;-37
2022/08/18 07:36:34;;;;;;;8.48;3.72;;;;;;;24.59;64.86;101359.03;4976451;28;20652;-36
2022/08/18 07:39:07;;;;;;;17.63;4.70;;;;;;;24.68;65.64;101355.53;4969733;28;20023;-37
2022/08/18 07:41:41;;;;;;;7.78;3.90;;;;;;;24.85;63.86;101360.03;4969342;28;20023;-36
2022/08/18 07:44:17;;;;;;;7.55;3.60;;;;;;;24.75;64.07;101358.91;4970106;28;20039;-36
2022/08/18 07:46:59;;;;;;;10.02;4.35;;;;;;;25.02;65.13;101363.47;4982969;28;20038;-37
2022/08/18 07:49:29;;;;;;;13.65;4.32;;;;;;;25.30;62.78;101370.53;4949582;28;20045;-36
2022/08/18 07:52:07;;;;;;;13.35;5.13;;;;;;;25.09;63.15;101375.09;4971186;28;20034;-34
2022/08/18 07:54:57;;;;;;;10.55;4.25;;;;;;;25.43;63.10;101384.94;4976949;28;20497;-36
2022/08/18 07:57:42;;;;;;;9.68;4.78;;;;;;;26.19;60.05;101387.94;4973737;28;20171;-36
2022/08/18 08:00:14;;;;;;;10.13;4.13;;;;;;;25.60;60.38;101383.63;4974037;28;20437;-37
2022/08/18 08:02:47;;;;;;;9.15;4.40;;;;;;;25.22;62.36;101386.75;4976060;28;20485;-36
2022/08/18 08:05:33;;;;;;;9.68;4.40;;;;;;;25.07;62.92;101385.53;4974581;28;20034;-36
2022/08/18 08:08:05;;;;;;;9.70;4.85;;;;;;;24.50;64.65;101391.72;4972649;28;20098;-37
2022/08/18 08:10:40;;;;;;;12.43;4.63;;;;;;;24.07;66.83;101385.22;4977273;28;20031;-36
2022/08/18 08:13:36;;;;;;;14.32;4.30;;;;;;;24.01;67.28;101389.00;4970205;28;20038;-36
2022/08/18 08:16:15;;;;;;;9.93;4.38;;;;;;;23.98;67.58;101389.50;4965728;28;20027;-35
2022/08/18 08:19:00;;;;;;;16.63;4.40;;;;;;;23.82;68.81;101389.34;4970217;28;20530;-36
2022/08/18 08:21:32;;;;;;;11.77;4.40;;;;;;;23.56;69.92;101390.91;4975768;28;20117;-35
2022/08/18 08:24:16;;;;;;;8.27;3.80;;;;;;;23.54;69.81;101393.09;4972437;28;20127;-37
2022/08/18 08:26:51;;;;;;;10.73;3.47;;;;;;;23.62;69.29;101386.34;4974777;28;20019;-37
2022/08/18 08:29:24;;;;;;;7.88;3.10;;;;;;;23.57;69.04;101380.78;4976052;28;20482;-36
2022/08/18 08:31:58;;;;;;;10.68;3.08;;;;;;;23.59;68.83;101376.69;4980361;28;20030;-35
2022/08/18 08:34:30;;;;;;;8.82;3.20;;;;;;;23.38;68.57;101375.59;4979611;28;20069;-35
2022/08/18 08:37:06;;;;;;;8.10;3.10;;;;;;;23.44;69.39;101371.81;4983176;28;20449;-35
2022/08/18 08:39:31;;;;;;;9.07;3.75;;;;;;;23.37;69.28;101376.66;4980085;28;20053;-35
2022/08/18 08:42:11;;;;;;;11.38;3.70;;;;;;;23.48;69.37;101374.06;4990162;28;20109;-36
2022/08/18 08:44:50;;;;;;;10.77;3.38;;;;;;;23.82;69.31;101383.84;4973428;28;20035;-36
2022/08/18 08:47:24;;;;;;;11.52;3.13;;;;;;;25.56;65.27;101376.16;4974392;28;20030;-37
2022/08/18 08:49:59;;;;;;;9.13;3.20;;;;;;;27.54;57.24;101368.22;4985118;28;20027;-36
2022/08/18 08:52:48;;;;;;;9.00;2.60;;;;;;;28.76;52.23;101371.31;4965894;28;20038;-34
2022/08/18 08:55:16;;;;;;;4.10;2.47;;;;;;;29.21;49.54;101374.75;4981447;28;20320;-35
2022/08/18 08:58:12;;;;;;;11.35;2.35;;;;;;;28.88;49.38;101380.03;4993611;28;20116;-34
2022/08/18 09:00:39;;;;;;;6.20;2.38;;;;;;;28.66;50.29;101373.06;4977675;28;20023;-36
2022/08/18 09:03:30;;;;;;;4.88;2.67;;;;;;;28.35;50.37;101371.63;4972618;28;20030;-36
2022/08/18 09:06:05;;;;;;;9.10;2.72;;;;;;;28.09;51.39;101374.56;4974330;28;20039;-35
2022/08/18 09:08:34;;;;;;;8.65;2.35;;;;;;;28.50;50.73;101370.72;4974896;28;20038;-35
2022/08/18 09:11:40;;;;;;;11.32;3.38;;;;;;;29.73;49.34;101379.41;4974997;28;20046;-36
2022/08/18 09:14:20;;;;;;;7.05;2.20;;;;;;;30.28;47.76;101384.47;4973868;28;20042;-36
2022/08/18 09:17:09;;;;;;;10.45;2.67;;;;;;;30.50;47.22;101375.47;4980879;28;20113;-35
2022/08/18 09:20:12;;;;;;;11.80;2.63;;;;;;;30.70;44.07;101382.66;4970086;28;20106;-36
2022/08/18 09:22:47;;;;;;;10.60;2.70;;;;;;;30.37;44.55;101385.41;4992998;28;20030;-36
2022/08/18 09:25:50;;;;;;;7.67;2.53;;;;;;;30.61;44.83;101381.69;4977499;28;20027;-36
2022/08/18 09:28:21;;;;;;;9.88;2.58;;;;;;;30.61;44.49;101371.41;4935423;29;20447;-35
2022/08/18 09:31:02;;;;;;;6.95;2.28;;;;;;;31.73;43.16;101377.88;4965711;28;20038;-36
2022/08/18 09:33:40;;;;;;;5.93;2.15;;;;;;;32.57;41.72;101391.25;4972917;28;20058;-36
2022/08/18 09:36:19;;;;;;;7.75;2.15;;;;;;;32.88;40.76;101374.56;4974957;28;20031;-36
2022/08/18 09:41:44;;;;;;;8.70;2.33;;;;;;;31.58;42.25;101384.63;4993204;28;20104;-36
2022/08/18 09:44:14;;;;;;;10.93;2.78;;;;;;;31.26;43.66;101380.78;4975617;28;20022;-36
2022/08/18 09:46:42;;;;;;;8.68;2.55;;;;;;;31.14;43.11;101367.38;4975383;28;20031;-36
2022/08/18 09:49:26;;;;;;;13.40;2.50;;;;;;;32.08;40.70;101374.31;4994202;28;20030;-35
2022/08/18 09:51:54;;;;;;;14.23;2.92;;;;;;;33.24;38.72;101381.97;4990538;28;20121;-35
2022/08/18 09:54:23;;;;;;;7.22;2.35;;;;;;;32.63;39.06;101378.03;4971989;28;20023;-36
2022/08/18 09:56:48;;;;;;;19.13;2.92;;;;;;;31.25;41.20;101385.53;4968091;28;20436;-36
2022/08/18 09:59:32;;;;;;;9.47;2.37;;;;;;;31.02;43.53;101381.00;4972453;28;20127;-36
2022/08/18 10:02:05;;;;;;;10.98;2.85;;;;;;;31.60;41.76;101383.19;4972034;28;20027;-37
2022/08/18 10:04:47;;;;;;;9.60;2.90;;;;;;;31.81;41.68;101375.19;4972686;28;20034;-35
2022/08/18 10:07:18;;;;;;;19.80;3.22;;;;;;;30.96;43.01;101371.06;4983876;28;20027;-36
2022/08/18 10:10:05;;;;;;;11.70;3.50;;;;;;;29.91;44.73;101369.44;4971630;28;20033;-36
2022/08/18 10:12:34;;;;;;;15.10;3.30;;;;;;;29.40;46.03;101364.53;4968791;28;20991;-36
2022/08/18 10:15:25;;;;;;;14.38;4.20;;;;;;;28.95;48.64;101363.91;4970369;28;20023;-36
2022/08/18 10:17:59;;;;;;;16.15;3.42;;;;;;;28.26;48.52;101356.78;4972068;28;20054;-36
2022/08/18 10:21:17;;;;;;;16.27;4.03;;;;;;;27.79;50.83;101357.03;4971621;28;20035;-36
2022/08/18 10:23:57;;;;;;;16.00;3.88;;;;;;;28.29;50.95;101351.47;4950239;28;20494;-35
2022/08/18 10:26:32;;;;;;;14.82;3.28;;;;;;;28.32;50.02;101350.88;4971535;28;20027;-36
2022/08/18 10:29:01;;;;;;;22.80;4.03;;;;;;;28.00;50.36;101359.72;4972972;28;20039;-36
2022/08/18 10:31:28;;;;;;;11.88;3.00;;;;;;;28.06;50.55;101364.09;4971427;28;20039;-35
2022/08/18 10:34:04;;;;;;;21.35;3.50;;;;;;;28.23;50.13;101370.06;4970298;28;20528;-36
2022/08/18 10:36:55;;;;;;;16.10;4.10;;;;;;;29.23;47.31;101365.03;4969499;28;20050;-36
2022/08/18 10:39:41;;;;;;;17.30;3.28;;;;;;;29.85;45.54;101365.06;4978759;28;20033;-36
2022/08/18 10:42:20;;;;;;;16.35;3.45;;;;;;;29.21;47.20;101363.66;4958138;28;20486;-36
2022/08/18 10:44:47;;;;;;;10.32;3.38;;;;;;;29.56;46.29;101356.84;4972402;28;20394;-36
2022/08/18 10:47:22;;;;;;;11.63;3.42;;;;;;;30.01;45.02;101360.13;4972213;28;20030;-36
2022/08/18 10:49:49;;;;;;;13.90;3.50;;;;;;;30.71;43.91;101348.16;4971123;28;20057;-36
2022/08/18 10:52:14;;;;;;;;;;;;;;;30.69;42.45;101350.44;4971091;28;20042;-36
2022/08/18 10:54:58;;;;;;;14.93;3.20;;;;;;;32.09;40.48;101353.69;4973074;28;19914;-35
2022/08/18 10:57:41;;;;;;;12.85;3.13;;;;;;;32.28;40.10;101363.81;4971527;28;20397;-35
2022/08/18 11:00:17;;;;;;;12.20;3.10;;;;;;;32.36;39.63;101361.13;4952404;28;20029;-36
2022/08/18 11:02:52;;;;;;;;;;;;;;;32.45;39.55;101365.91;4967956;28;20030;-35
2022/08/18 11:05:21;;;;;;;17.90;3.70;;;;;;;32.89;39.00;101361.44;4971089;28;20000;-35
2022/08/18 11:07:47;;;;;;;11.57;2.72;;;;;;;33.52;38.05;101359.38;4964817;28;20030;-36
2022/08/18 11:10:17;;;;;;;;;;;;;;;33.66;37.59;101360.09;4970753;28;20093;-37
2022/08/18 11:13:01;;;;;;;9.18;3.00;;;;;;;33.32;37.26;101358.03;4986523;28;20064;-35
2022/08/18 11:15:52;;;;;;;18.33;2.97;;;;;;;33.61;37.72;101360.25;4960630;28;20035;-37
2022/08/18 11:18:31;;;;;;;16.05;3.45;;;;;;;33.75;36.47;101346.97;4969422;28;20069;-36
2022/08/18 11:21:34;;;;;;;15.25;3.58;;;;;;;33.44;35.92;101341.47;4960108;28;20043;-36
2022/08/18 11:24:20;;;;;;;15.32;3.22;;;;;;;33.44;36.13;101331.16;4970235;28;20085;-36
2022/08/18 11:26:48;;;;;;;14.23;3.28;;;;;;;33.41;36.68;101342.97;4956519;28;20022;-35
2022/08/18 11:29:26;;;;;;;12.90;3.38;;;;;;;33.11;36.71;101346.66;4970014;28;20046;-36
2022/08/18 11:31:56;;;;;;;11.20;2.80;;;;;;;33.36;37.46;101350.66;4973309;28;20549;-35
2022/08/18 11:34:28;;;;;;;10.30;3.03;;;;;;;34.09;35.38;101351.78;4962030;28;20046;-36
2022/08/18 11:36:56;;;;;;;12.38;3.10;;;;;;;34.46;34.43;101345.81;4973157;28;20058;-35
2022/08/18 11:39:21;;;;;;;8.27;2.50;;;;;;;34.05;34.15;101347.97;4967586;28;20402;-36
2022/08/18 11:41:48;;;;;;;7.20;2.50;;;;;;;34.68;32.27;101339.22;4971345;28;20022;-35
2022/08/18 11:44:18;;;;;;;6.78;2.40;;;;;;;34.02;33.64;101328.25;4971116;28;20030;-36
2022/08/18 11:46:43;;;;;;;7.43;3.00;;;;;;;33.53;33.87;101338.72;4969129;28;20030;-36
2022/08/18 11:49:19;;;;;;;8.83;3.20;;;;;;;33.86;34.58;101331.56;4969457;28;20085;-36